createdAt,value
2017-10-04T00:00:18.900Z,99.99
2017-10-04T00:00:59.475Z,99.99
2017-10-04T00:01:40.058Z,99.99
2017-10-04T00:02:20.620Z,99.99
2017-10-04T00:03:01.204Z,99.99
2017-10-04T00:03:41.778Z,99.99
2017-10-04T00:04:22.349Z,99.99
2017-10-04T00:05:02.912Z,99.99
2017-10-04T00:05:58.059Z,99.99
2017-10-04T00:06:38.642Z,99.99
2017-10-04T00:07:19.217Z,99.99
2017-10-04T00:07:59.797Z,99.99
2017-10-04T00:08:40.372Z,99.99
2017-10-04T00:09:20.951Z,99.99
2017-10-04T00:10:01.544Z,99.99
2017-10-04T00:10:42.123Z,99.99
2017-10-04T00:11:22.701Z,99.99
2017-10-04T00:12:03.278Z,99.99
2017-10-04T00:12:43.854Z,99.99
2017-10-04T00:13:24.437Z,99.99
2017-10-04T00:14:05.014Z,99.99
2017-10-04T00:14:45.587Z,99.99
2017-10-04T00:15:26.159Z,99.99
2017-10-04T00:16:06.745Z,99.99
2017-10-04T00:16:47.325Z,99.99
2017-10-04T00:17:27.904Z,99.99
2017-10-04T00:18:08.479Z,99.99
2017-10-04T00:18:49.050Z,99.99
2017-10-04T00:19:29.630Z,99.99
2017-10-04T00:20:10.206Z,99.99
2017-10-04T00:20:50.787Z,99.99
2017-10-04T00:21:31.365Z,99.99
2017-10-04T00:22:11.937Z,99.99
2017-10-04T00:22:52.515Z,99.99
2017-10-04T00:23:33.096Z,99.99
2017-10-04T00:24:13.686Z,99.99
2017-10-04T00:24:54.265Z,99.99
2017-10-04T00:25:35.333Z,99.99
2017-10-04T00:26:15.920Z,99.99
2017-10-04T00:26:56.488Z,99.99
2017-10-04T00:27:37.059Z,99.99
2017-10-04T00:28:37.352Z,99.99
2017-10-04T00:29:17.930Z,99.99
2017-10-04T00:29:58.497Z,99.99
2017-10-04T00:30:39.068Z,99.99
2017-10-04T00:31:19.628Z,99.99
2017-10-04T00:32:00.206Z,99.99
2017-10-04T00:32:40.786Z,99.99
2017-10-04T00:33:21.360Z,99.99
2017-10-04T00:34:01.929Z,99.99
2017-10-04T00:34:42.511Z,99.99
2017-10-04T00:35:23.082Z,99.99
2017-10-04T00:36:03.663Z,99.99
2017-10-04T00:36:44.239Z,99.99
2017-10-04T00:37:24.816Z,99.99
2017-10-04T00:38:05.396Z,99.99
2017-10-04T00:38:45.982Z,99.99
2017-10-04T00:39:26.566Z,99.99
2017-10-04T00:40:07.145Z,99.99
2017-10-04T00:40:47.720Z,99.99
2017-10-04T00:41:28.296Z,99.99
2017-10-04T00:42:08.875Z,99.99
2017-10-04T00:42:49.446Z,99.99
2017-10-04T00:43:30.023Z,99.99
2017-10-04T00:44:10.610Z,99.99
2017-10-04T00:44:51.188Z,99.99
2017-10-04T00:45:31.771Z,99.99
2017-10-04T00:46:12.346Z,99.99
2017-10-04T00:46:52.919Z,99.99
2017-10-04T00:47:33.496Z,99.99
2017-10-04T00:48:14.075Z,99.99
2017-10-04T00:48:54.641Z,99.99
2017-10-04T00:49:35.222Z,99.99
2017-10-04T00:50:15.806Z,99.99
2017-10-04T00:50:56.375Z,99.99
2017-10-04T00:51:36.957Z,99.99
2017-10-04T00:52:17.530Z,99.99
2017-10-04T00:52:58.104Z,99.99
2017-10-04T00:53:38.687Z,99.99
2017-10-04T00:54:19.261Z,99.99
2017-10-04T00:54:59.836Z,99.99
2017-10-04T00:55:40.413Z,99.99
2017-10-04T00:56:20.988Z,99.99
2017-10-04T00:57:01.577Z,99.99
2017-10-04T00:57:42.150Z,99.99
2017-10-04T00:58:22.728Z,99.99
2017-10-04T00:59:03.304Z,99.99
2017-10-04T00:59:43.864Z,99.99
2017-10-04T01:00:24.441Z,99.99
2017-10-04T01:01:05.021Z,99.99
2017-10-04T01:01:45.599Z,99.99
2017-10-04T01:02:26.167Z,99.99
2017-10-04T01:03:06.758Z,99.99
2017-10-04T01:03:47.324Z,99.99
2017-10-04T01:04:27.903Z,99.99
2017-10-04T01:05:08.465Z,99.99
2017-10-04T01:05:49.043Z,99.99
2017-10-04T01:06:29.614Z,99.99
2017-10-04T01:07:10.186Z,99.99
2017-10-04T01:07:50.751Z,99.99
2017-10-04T01:08:31.340Z,99.99
2017-10-04T01:09:11.935Z,99.99
2017-10-04T01:09:52.492Z,99.99
2017-10-04T01:10:33.075Z,99.99
2017-10-04T01:11:13.632Z,99.99
2017-10-04T01:11:54.206Z,99.99
2017-10-04T01:12:34.777Z,99.99
2017-10-04T01:13:15.356Z,99.99
2017-10-04T01:13:55.939Z,99.99
2017-10-04T01:14:36.508Z,99.99
2017-10-04T01:15:17.078Z,99.99
2017-10-04T01:15:57.662Z,99.99
2017-10-04T01:16:38.238Z,99.99
2017-10-04T01:17:18.831Z,99.99
2017-10-04T01:17:59.385Z,99.99
2017-10-04T01:18:39.975Z,99.99
2017-10-04T01:19:20.525Z,99.99
2017-10-04T01:20:01.097Z,99.99
2017-10-04T01:20:41.667Z,99.99
2017-10-04T01:21:22.243Z,99.99
2017-10-04T01:22:02.818Z,99.99
2017-10-04T01:22:43.387Z,99.99
2017-10-04T01:23:23.965Z,99.99
2017-10-04T01:24:04.549Z,99.99
2017-10-04T01:26:22.511Z,99.99
2017-10-04T01:27:03.083Z,99.99
2017-10-04T01:27:43.641Z,99.99
2017-10-04T01:28:24.207Z,99.99
2017-10-04T01:29:04.809Z,99.99
2017-10-04T01:29:45.373Z,99.99
2017-10-04T01:30:25.942Z,99.99
2017-10-04T01:31:06.522Z,99.99
2017-10-04T01:31:47.101Z,99.99
2017-10-04T01:32:27.677Z,99.99
2017-10-04T01:33:08.242Z,99.99
2017-10-04T01:33:48.806Z,99.99
2017-10-04T01:34:29.384Z,99.99
2017-10-04T01:35:09.962Z,99.99
2017-10-04T01:35:50.515Z,99.99
2017-10-04T01:36:31.097Z,99.99
2017-10-04T01:37:26.483Z,99.99
2017-10-04T01:38:07.051Z,99.99
2017-10-04T01:38:47.625Z,99.99
2017-10-04T01:39:28.195Z,99.99
2017-10-04T01:40:08.775Z,99.99
2017-10-04T01:40:49.352Z,99.99
2017-10-04T01:41:29.918Z,99.99
2017-10-04T01:42:10.486Z,99.99
2017-10-04T01:42:51.059Z,99.99
2017-10-04T01:43:31.639Z,99.99
2017-10-04T01:44:12.223Z,99.99
2017-10-04T01:44:52.802Z,99.99
2017-10-04T01:45:33.392Z,99.99
2017-10-04T01:46:13.969Z,99.99
2017-10-04T01:46:54.542Z,99.99
2017-10-04T01:47:35.143Z,99.99
2017-10-04T01:48:15.697Z,99.99
2017-10-04T01:48:56.277Z,99.99
2017-10-04T01:49:36.858Z,99.99
2017-10-04T01:51:29.480Z,99.99
2017-10-04T01:52:10.070Z,99.99
2017-10-04T01:52:50.646Z,99.99
2017-10-04T01:53:31.214Z,99.99
2017-10-04T01:54:11.789Z,99.99
2017-10-04T01:54:52.370Z,99.99
2017-10-04T01:55:32.947Z,99.99
2017-10-04T01:56:13.524Z,99.99
2017-10-04T01:56:54.105Z,99.99
2017-10-04T01:57:34.679Z,99.99
2017-10-04T01:58:15.246Z,99.99
2017-10-04T01:58:55.815Z,99.99
2017-10-04T01:59:36.389Z,99.99
2017-10-04T02:00:16.964Z,99.99
2017-10-04T02:00:57.547Z,99.99
2017-10-04T02:01:38.126Z,99.99
2017-10-04T02:02:18.694Z,99.99
2017-10-04T02:02:59.275Z,99.99
2017-10-04T02:03:39.837Z,99.99
2017-10-04T02:04:20.407Z,99.99
2017-10-04T02:05:00.988Z,99.99
2017-10-04T02:05:41.576Z,99.99
2017-10-04T02:06:22.149Z,99.99
2017-10-04T02:07:02.729Z,99.99
2017-10-04T02:07:43.306Z,99.99
2017-10-04T02:08:23.889Z,99.99
2017-10-04T02:09:04.467Z,99.99
2017-10-04T02:09:45.046Z,99.99
2017-10-04T02:10:25.619Z,99.99
2017-10-04T02:11:06.204Z,99.99
2017-10-04T02:11:46.788Z,99.99
2017-10-04T02:12:27.357Z,99.99
2017-10-04T02:13:07.939Z,99.99
2017-10-04T02:13:48.512Z,99.99
2017-10-04T02:14:29.095Z,99.99
2017-10-04T02:15:09.675Z,99.99
2017-10-04T02:15:50.256Z,99.99
2017-10-04T02:16:30.838Z,99.99
2017-10-04T02:17:11.413Z,99.99
2017-10-04T02:17:51.994Z,99.99
2017-10-04T02:18:32.579Z,99.99
2017-10-04T02:19:13.153Z,99.99
2017-10-04T02:19:53.739Z,99.99
2017-10-04T02:20:34.311Z,99.99
2017-10-04T02:21:14.890Z,99.99
2017-10-04T02:21:55.461Z,99.99
2017-10-04T02:22:36.052Z,99.99
2017-10-04T02:23:16.633Z,99.99
2017-10-04T02:23:57.209Z,99.99
2017-10-04T02:24:37.776Z,99.99
2017-10-04T02:25:18.357Z,99.99
2017-10-04T02:25:58.940Z,99.99
2017-10-04T02:26:39.524Z,99.99
2017-10-04T02:27:20.087Z,99.99
2017-10-04T02:28:00.662Z,99.99
2017-10-04T02:28:41.243Z,99.99
2017-10-04T02:29:21.819Z,99.99
2017-10-04T02:30:02.399Z,99.99
2017-10-04T02:30:42.974Z,99.99
2017-10-04T02:31:23.550Z,99.99
2017-10-04T02:32:04.136Z,99.99
2017-10-04T02:32:44.710Z,99.99
2017-10-04T02:33:25.288Z,99.99
2017-10-04T02:34:05.869Z,99.99
2017-10-04T02:34:46.447Z,99.99
2017-10-04T02:35:27.031Z,99.99
2017-10-04T02:36:07.613Z,99.99
2017-10-04T02:36:48.185Z,99.99
2017-10-04T02:37:28.767Z,99.99
2017-10-04T02:38:09.333Z,99.99
2017-10-04T02:38:49.925Z,99.99
2017-10-04T02:39:30.497Z,99.99
2017-10-04T02:40:11.073Z,99.99
2017-10-04T02:40:51.653Z,99.99
2017-10-04T02:41:32.223Z,99.99
2017-10-04T02:42:12.798Z,99.99
2017-10-04T02:42:53.367Z,99.99
2017-10-04T02:43:33.938Z,99.99
2017-10-04T02:44:14.511Z,99.99
2017-10-04T02:44:55.089Z,99.99
2017-10-04T02:45:35.666Z,99.99
2017-10-04T02:46:16.250Z,99.99
2017-10-04T02:46:56.832Z,99.99
2017-10-04T02:47:37.409Z,99.99
2017-10-04T02:48:17.984Z,99.99
2017-10-04T02:48:58.561Z,99.99
2017-10-04T02:49:39.133Z,99.99
2017-10-04T02:50:19.714Z,99.99
2017-10-04T02:51:00.294Z,99.99
2017-10-04T02:51:40.873Z,99.99
2017-10-04T02:52:21.445Z,99.99
2017-10-04T02:53:02.026Z,99.99
2017-10-04T02:53:42.599Z,99.99
2017-10-04T02:54:23.171Z,99.99
2017-10-04T02:55:03.747Z,99.99
2017-10-04T02:55:44.323Z,99.99
2017-10-04T02:56:24.901Z,99.99
2017-10-04T02:57:05.479Z,99.99
2017-10-04T02:57:46.055Z,99.99
2017-10-04T02:58:26.633Z,99.99
2017-10-04T02:59:07.207Z,99.99
2017-10-04T02:59:47.798Z,99.99
2017-10-04T03:00:28.364Z,99.99
2017-10-04T03:01:08.945Z,99.99
2017-10-04T03:01:49.518Z,99.99
2017-10-04T03:02:30.110Z,99.99
2017-10-04T03:03:10.695Z,99.99
2017-10-04T03:03:51.260Z,99.99
2017-10-04T03:04:31.843Z,99.99
2017-10-04T03:05:12.426Z,99.99
2017-10-04T03:05:53.000Z,99.99
2017-10-04T03:06:46.301Z,99.99
2017-10-04T03:07:26.886Z,99.99
2017-10-04T03:08:07.445Z,99.99
2017-10-04T03:08:48.013Z,99.99
2017-10-04T03:09:28.569Z,99.99
2017-10-04T03:10:09.144Z,99.99
2017-10-04T03:10:49.736Z,99.99
2017-10-04T03:11:30.297Z,99.99
2017-10-04T03:12:10.873Z,99.99
2017-10-04T03:12:51.456Z,99.99
2017-10-04T03:13:32.042Z,99.99
2017-10-04T03:14:27.358Z,99.99
2017-10-04T03:15:07.933Z,99.99
2017-10-04T03:15:48.602Z,99.99
2017-10-04T03:16:29.230Z,99.99
2017-10-04T03:17:09.805Z,99.99
2017-10-04T03:17:50.392Z,99.99
2017-10-04T03:18:30.952Z,99.99
2017-10-04T03:19:11.512Z,99.99
2017-10-04T03:19:52.101Z,99.99
2017-10-04T03:20:32.683Z,99.99
2017-10-04T03:21:13.263Z,99.99
2017-10-04T03:21:53.846Z,99.99
2017-10-04T03:22:34.421Z,99.99
2017-10-04T03:23:15.001Z,99.99
2017-10-04T03:23:55.581Z,99.99
2017-10-04T03:24:36.160Z,99.99
2017-10-04T03:25:31.448Z,99.99
2017-10-04T03:26:12.027Z,99.99
2017-10-04T03:26:52.604Z,99.99
2017-10-04T03:27:33.175Z,99.99
2017-10-04T03:28:13.750Z,99.99
2017-10-04T03:28:54.315Z,99.99
2017-10-04T03:29:34.901Z,99.99
2017-10-04T03:30:15.464Z,99.99
2017-10-04T03:30:56.016Z,99.99
2017-10-04T03:31:36.593Z,99.99
2017-10-04T03:32:17.169Z,99.99
2017-10-04T03:32:57.729Z,99.99
2017-10-04T03:33:38.302Z,99.99
2017-10-04T03:34:18.879Z,99.99
2017-10-04T03:34:59.448Z,99.99
2017-10-04T03:35:40.029Z,99.99
2017-10-04T03:36:20.591Z,99.99
2017-10-04T03:37:01.165Z,99.99
2017-10-04T03:37:41.764Z,99.99
2017-10-04T03:38:22.334Z,99.99
2017-10-04T03:39:02.905Z,99.99
2017-10-04T03:39:43.486Z,99.99
2017-10-04T03:40:24.072Z,99.99
2017-10-04T03:41:04.641Z,99.99
2017-10-04T03:41:45.224Z,99.99
2017-10-04T03:42:25.806Z,99.99
2017-10-04T03:44:23.542Z,99.99
2017-10-04T03:45:04.115Z,99.99
2017-10-04T03:45:44.698Z,99.99
2017-10-04T03:46:25.246Z,99.99
2017-10-04T03:47:05.842Z,99.99
2017-10-04T03:47:46.419Z,99.99
2017-10-04T03:48:26.973Z,99.99
2017-10-04T03:49:07.532Z,99.99
2017-10-04T03:49:48.099Z,99.99
2017-10-04T03:50:28.663Z,99.99
2017-10-04T03:51:09.240Z,99.99
2017-10-04T03:51:49.828Z,99.99
2017-10-04T03:52:30.374Z,99.99
2017-10-04T03:53:10.954Z,99.99
2017-10-04T03:54:06.515Z,99.99
2017-10-04T03:54:47.105Z,99.99
2017-10-04T03:55:27.657Z,99.99
2017-10-04T03:57:45.605Z,99.99
2017-10-04T03:58:26.185Z,99.99
2017-10-04T03:59:06.759Z,99.99
2017-10-04T03:59:47.337Z,99.99
2017-10-04T04:00:27.911Z,99.99
2017-10-04T04:01:08.492Z,99.99
2017-10-04T04:01:49.073Z,99.99
2017-10-04T04:02:29.642Z,99.99
2017-10-04T04:03:10.224Z,99.99
2017-10-04T04:03:50.791Z,99.99
2017-10-04T04:04:31.362Z,99.99
2017-10-04T04:05:11.933Z,99.99
2017-10-04T04:06:07.294Z,99.99
2017-10-04T04:06:47.871Z,99.99
2017-10-04T04:07:28.451Z,99.99
2017-10-04T04:08:09.029Z,99.99
2017-10-04T04:08:49.602Z,99.99
2017-10-04T04:09:30.183Z,99.99
2017-10-04T04:10:10.766Z,99.99
2017-10-04T04:10:51.312Z,99.99
2017-10-04T04:11:31.905Z,99.99
2017-10-04T04:12:12.477Z,99.99
2017-10-04T04:12:53.054Z,99.99
2017-10-04T04:13:33.633Z,99.99
2017-10-04T04:14:14.206Z,99.99
2017-10-04T04:14:54.790Z,99.99
2017-10-04T04:15:35.370Z,99.99
2017-10-04T04:16:15.950Z,99.99
2017-10-04T04:16:56.530Z,99.99
2017-10-04T04:17:37.106Z,99.99
2017-10-04T04:18:17.680Z,99.99
2017-10-04T04:18:58.264Z,99.99
2017-10-04T04:19:38.832Z,99.99
2017-10-04T04:20:19.411Z,99.99
2017-10-04T04:20:59.982Z,99.99
2017-10-04T04:21:40.548Z,99.99
2017-10-04T04:22:21.123Z,99.99
2017-10-04T04:23:01.707Z,99.99
2017-10-04T04:23:42.274Z,99.99
2017-10-04T04:24:22.853Z,99.99
2017-10-04T04:25:03.432Z,99.99
2017-10-04T04:25:44.015Z,99.99
2017-10-04T04:26:24.586Z,99.99
2017-10-04T04:27:05.167Z,99.99
2017-10-04T04:27:45.745Z,99.99
2017-10-04T04:28:26.328Z,99.99
2017-10-04T04:29:06.905Z,99.99
2017-10-04T04:29:47.482Z,99.99
2017-10-04T04:30:28.068Z,99.99
2017-10-04T04:31:08.649Z,99.99
2017-10-04T04:31:49.224Z,99.99
2017-10-04T04:32:29.803Z,99.99
2017-10-04T04:33:10.386Z,99.99
2017-10-04T04:33:50.966Z,99.99
2017-10-04T04:34:31.545Z,99.99
2017-10-04T04:35:12.112Z,99.99
2017-10-04T04:35:52.701Z,99.99
2017-10-04T04:36:33.271Z,99.99
2017-10-04T04:37:13.851Z,99.99
2017-10-04T04:37:54.424Z,99.99
2017-10-04T04:38:35.007Z,99.99
2017-10-04T04:39:15.583Z,99.99
2017-10-04T04:39:56.158Z,99.99
2017-10-04T04:40:36.741Z,99.99
2017-10-04T04:41:17.317Z,99.99
2017-10-04T04:41:57.899Z,99.99
2017-10-04T04:42:38.477Z,99.99
2017-10-04T04:43:19.057Z,99.99
2017-10-04T04:43:59.634Z,99.99
2017-10-04T04:44:40.214Z,99.99
2017-10-04T04:45:20.799Z,99.99
2017-10-04T04:46:01.360Z,99.99
2017-10-04T04:46:41.926Z,99.99
2017-10-04T04:47:22.509Z,99.99
2017-10-04T04:48:03.091Z,99.99
2017-10-04T04:48:43.663Z,99.99
2017-10-04T04:49:24.237Z,99.99
2017-10-04T04:50:04.817Z,99.99
2017-10-04T04:50:45.401Z,99.99
2017-10-04T04:51:25.973Z,99.99
2017-10-04T04:52:06.557Z,99.99
2017-10-04T04:52:47.127Z,99.99
2017-10-04T04:53:27.708Z,99.99
2017-10-04T04:54:08.274Z,99.99
2017-10-04T04:54:48.848Z,99.99
2017-10-04T04:55:29.419Z,99.99
2017-10-04T04:56:09.999Z,99.99
2017-10-04T04:56:50.568Z,99.99
2017-10-04T04:57:31.153Z,99.99
2017-10-04T04:58:11.725Z,99.99
2017-10-04T04:58:52.303Z,99.99
2017-10-04T04:59:32.887Z,99.99
2017-10-04T05:00:13.453Z,99.99
2017-10-04T05:00:54.041Z,99.99
2017-10-04T05:01:34.621Z,99.99
2017-10-04T05:02:15.200Z,99.99
2017-10-04T05:02:55.780Z,99.99
2017-10-04T05:03:36.357Z,99.99
2017-10-04T05:04:16.942Z,99.99
2017-10-04T05:04:57.522Z,99.99
2017-10-04T05:05:38.100Z,99.99
2017-10-04T05:06:18.677Z,99.99
2017-10-04T05:06:59.257Z,99.99
2017-10-04T05:07:39.816Z,99.99
2017-10-04T05:08:20.395Z,99.99
2017-10-04T05:09:00.975Z,99.99
2017-10-04T05:09:41.556Z,99.99
2017-10-04T05:10:22.136Z,99.99
2017-10-04T05:11:02.713Z,99.99
2017-10-04T05:11:43.290Z,99.99
2017-10-04T05:12:23.859Z,99.99
2017-10-04T05:13:04.439Z,99.99
2017-10-04T05:13:45.019Z,99.99
2017-10-04T05:14:25.597Z,99.99
2017-10-04T05:15:06.170Z,99.99
2017-10-04T05:15:46.736Z,99.99
2017-10-04T05:16:27.310Z,99.99
2017-10-04T05:17:07.898Z,99.99
2017-10-04T05:17:48.467Z,99.99
2017-10-04T05:18:29.050Z,99.99
2017-10-04T05:19:09.618Z,99.99
2017-10-04T05:19:50.186Z,99.99
2017-10-04T05:20:30.768Z,99.99
2017-10-04T05:21:11.345Z,99.99
2017-10-04T05:21:51.919Z,99.99
2017-10-04T05:22:32.489Z,99.99
2017-10-04T05:23:13.061Z,99.99
2017-10-04T05:23:53.645Z,99.99
2017-10-04T05:24:34.218Z,99.99
2017-10-04T05:25:14.788Z,99.99
2017-10-04T05:25:55.357Z,99.99
2017-10-04T05:26:35.937Z,99.99
2017-10-04T05:27:31.300Z,99.99
2017-10-04T05:28:11.870Z,99.99
2017-10-04T05:28:52.453Z,99.99
2017-10-04T05:29:33.035Z,99.99
2017-10-04T05:30:13.613Z,99.99
2017-10-04T05:30:54.201Z,99.99
2017-10-04T05:31:34.770Z,99.99
2017-10-04T05:32:15.349Z,99.99
2017-10-04T05:32:55.923Z,99.99
2017-10-04T05:33:36.513Z,99.99
2017-10-04T05:34:17.089Z,99.99
2017-10-04T05:34:57.659Z,99.99
2017-10-04T05:35:38.241Z,99.99
2017-10-04T05:36:18.818Z,99.99
2017-10-04T05:36:59.396Z,99.99
2017-10-04T05:37:39.981Z,99.99
2017-10-04T05:38:20.562Z,99.99
2017-10-04T05:39:01.143Z,99.99
2017-10-04T05:39:41.728Z,99.99
2017-10-04T05:40:22.302Z,99.99
2017-10-04T05:41:02.906Z,99.99
2017-10-04T05:43:00.637Z,99.99
2017-10-04T05:43:41.218Z,99.99
2017-10-04T05:44:21.807Z,99.99
2017-10-04T05:45:02.385Z,99.99
2017-10-04T05:45:42.965Z,99.99
2017-10-04T05:46:23.540Z,99.99
2017-10-04T05:47:04.116Z,99.99
2017-10-04T05:47:44.673Z,99.99
2017-10-04T05:48:25.265Z,99.99
2017-10-04T05:49:05.837Z,99.99
2017-10-04T05:49:46.419Z,99.99
2017-10-04T05:50:26.992Z,99.99
2017-10-04T05:52:24.635Z,99.99
2017-10-04T05:53:05.214Z,99.99
2017-10-04T05:53:45.801Z,99.99
2017-10-04T05:54:26.378Z,99.99
2017-10-04T05:55:06.959Z,99.99
2017-10-04T05:55:47.529Z,99.99
2017-10-04T05:56:28.089Z,99.99
2017-10-04T05:57:08.650Z,99.99
2017-10-04T05:57:49.184Z,99.99
2017-10-04T05:58:29.750Z,99.99
2017-10-04T05:59:10.315Z,99.99
2017-10-04T05:59:50.898Z,99.99
2017-10-04T06:00:31.445Z,99.99
2017-10-04T06:01:12.007Z,99.99
2017-10-04T06:02:08.305Z,99.99
2017-10-04T06:02:48.875Z,99.99
2017-10-04T06:03:29.454Z,99.99
2017-10-04T06:04:10.024Z,99.99
2017-10-04T06:04:50.601Z,99.99
2017-10-04T06:05:31.155Z,99.99
2017-10-04T06:06:11.726Z,99.99
2017-10-04T06:06:52.307Z,99.99
2017-10-04T06:07:32.875Z,99.99
2017-10-04T06:08:13.439Z,99.99
2017-10-04T06:08:54.006Z,99.99
2017-10-04T06:09:34.590Z,99.99
2017-10-04T06:10:15.161Z,99.99
2017-10-04T06:10:55.739Z,99.99
2017-10-04T06:11:36.320Z,99.99
2017-10-04T06:12:16.877Z,99.99
2017-10-04T06:12:57.445Z,99.99
2017-10-04T06:13:38.024Z,99.99
2017-10-04T06:14:18.603Z,99.99
2017-10-04T06:14:59.165Z,99.99
2017-10-04T06:15:39.753Z,99.99
2017-10-04T06:16:20.313Z,99.99
2017-10-04T06:17:00.885Z,99.99
2017-10-04T06:17:41.468Z,99.99
2017-10-04T06:18:22.037Z,99.99
2017-10-04T06:19:02.596Z,99.99
2017-10-04T06:19:43.188Z,99.99
2017-10-04T06:20:23.760Z,99.99
2017-10-04T06:21:04.320Z,99.99
2017-10-04T06:21:44.872Z,99.99
2017-10-04T06:22:25.440Z,99.99
2017-10-04T06:23:05.999Z,99.99
2017-10-04T06:23:46.551Z,99.99
2017-10-04T06:24:27.104Z,99.99
2017-10-04T06:25:07.662Z,99.99
2017-10-04T06:25:48.219Z,99.99
2017-10-04T06:26:28.779Z,99.99
2017-10-04T06:27:09.341Z,99.99
2017-10-04T06:27:49.903Z,99.99
2017-10-04T06:28:30.476Z,99.99
2017-10-04T06:29:11.011Z,99.99
2017-10-04T06:31:03.620Z,99.99
2017-10-04T06:31:44.189Z,99.99
2017-10-04T06:32:24.778Z,99.99
2017-10-04T06:33:05.346Z,99.99
2017-10-04T06:33:45.926Z,99.99
2017-10-04T06:34:26.492Z,99.99
2017-10-04T06:35:07.069Z,99.99
2017-10-04T06:35:47.642Z,99.99
2017-10-04T06:36:28.217Z,99.99
2017-10-04T06:37:08.773Z,99.99
2017-10-04T06:37:56.356Z,99.99
2017-10-04T06:38:36.912Z,99.99
2017-10-04T06:39:17.489Z,99.99
2017-10-04T06:39:58.027Z,99.99
2017-10-04T06:40:38.593Z,99.99
2017-10-04T06:41:19.177Z,99.99
2017-10-04T06:41:59.736Z,99.99
2017-10-04T06:42:40.294Z,99.99
2017-10-04T06:43:20.844Z,99.99
2017-10-04T06:44:01.407Z,99.99
2017-10-04T06:44:41.978Z,99.99
2017-10-04T06:45:22.548Z,99.99
2017-10-04T06:46:03.132Z,99.99
2017-10-04T06:46:43.675Z,99.99
2017-10-04T06:47:24.225Z,99.99
2017-10-04T06:48:04.799Z,99.99
2017-10-04T06:48:45.395Z,99.99
2017-10-04T06:49:25.948Z,99.99
2017-10-04T06:50:06.535Z,99.99
2017-10-04T06:50:47.090Z,99.99
2017-10-04T06:51:27.630Z,97.75
2017-10-04T06:52:08.208Z,92.11
2017-10-04T06:52:48.757Z,88.56
2017-10-04T06:53:29.324Z,85.67
2017-10-04T06:54:09.899Z,82.49
2017-10-04T06:54:50.464Z,78.02
2017-10-04T06:55:31.013Z,74.44
2017-10-04T06:56:11.568Z,72.36
2017-10-04T06:56:52.128Z,70.37
2017-10-04T06:57:32.676Z,69.06
2017-10-04T06:58:13.389Z,65.98
2017-10-04T06:58:53.962Z,65.88
2017-10-04T06:59:34.557Z,63.85
2017-10-04T07:00:15.100Z,64.15
2017-10-04T07:00:55.659Z,62.7
2017-10-04T07:01:36.223Z,63.57
2017-10-04T07:02:16.790Z,63.18
2017-10-04T07:02:57.364Z,63.76
2017-10-04T07:03:37.954Z,63.6
2017-10-04T07:04:18.532Z,62.35
2017-10-04T07:04:59.112Z,62.73
2017-10-04T07:05:39.695Z,61.87
2017-10-04T07:06:20.270Z,62.63
2017-10-04T07:07:00.851Z,62.45
2017-10-04T07:07:41.421Z,61.68
2017-10-04T07:08:22.008Z,61.77
2017-10-04T07:09:02.580Z,61.19
2017-10-04T07:09:43.147Z,60.23
2017-10-04T07:10:23.744Z,61.13
2017-10-04T07:12:41.687Z,58.01
2017-10-04T07:13:22.274Z,58.69
2017-10-04T07:14:02.855Z,59.39
2017-10-04T07:14:43.434Z,60.28
2017-10-04T07:15:24.018Z,56.91
2017-10-04T07:16:04.595Z,57.1
2017-10-04T07:16:45.180Z,57.01
2017-10-04T07:17:25.765Z,56.49
2017-10-04T07:18:06.346Z,56.3
2017-10-04T07:18:46.932Z,57.37
2017-10-04T07:19:27.515Z,58.91
2017-10-04T07:20:08.105Z,58.2
2017-10-04T07:20:48.685Z,58.56
2017-10-04T07:21:29.275Z,59.78
2017-10-04T07:22:09.850Z,60.46
2017-10-04T07:22:50.416Z,60.81
2017-10-04T07:23:31.004Z,61.43
2017-10-04T07:24:11.585Z,63.12
2017-10-04T07:24:52.161Z,65.56
2017-10-04T07:25:32.754Z,68.44
2017-10-04T07:26:13.343Z,68.24
2017-10-04T07:26:53.919Z,67.8
2017-10-04T07:27:34.503Z,67.99
2017-10-04T07:28:15.093Z,67.93
2017-10-04T07:28:55.680Z,67.25
2017-10-04T07:29:36.268Z,67.25
2017-10-04T07:30:17.790Z,66.97
2017-10-04T07:30:58.363Z,66.77
2017-10-04T07:31:38.949Z,67.25
2017-10-04T07:32:19.531Z,67.41
2017-10-04T07:33:00.116Z,67.35
2017-10-04T07:33:51.507Z,66.42
2017-10-04T07:34:32.093Z,64.53
2017-10-04T07:35:12.669Z,63.6
2017-10-04T07:35:53.256Z,62.67
2017-10-04T07:36:33.842Z,60.94
2017-10-04T07:37:14.429Z,61.71
2017-10-04T07:37:55.004Z,61.65
2017-10-04T07:38:35.584Z,60.68
2017-10-04T07:39:16.171Z,60.9
2017-10-04T07:39:56.755Z,60.97
2017-10-04T07:40:37.335Z,60.84
2017-10-04T07:41:17.924Z,62.38
2017-10-04T07:41:58.512Z,63.51
2017-10-04T07:42:39.092Z,65.01
2017-10-04T07:43:19.693Z,67.47
2017-10-04T07:44:00.274Z,69.78
2017-10-04T07:44:40.851Z,69.97
2017-10-04T07:45:21.437Z,69.78
2017-10-04T07:46:02.028Z,70.84
2017-10-04T07:46:42.613Z,70.7
2017-10-04T07:47:23.193Z,71.28
2017-10-04T07:48:03.777Z,71.86
2017-10-04T07:48:44.359Z,72.53
2017-10-04T07:49:24.945Z,72.24
2017-10-04T07:50:05.529Z,71.57
2017-10-04T07:50:46.109Z,72.14
2017-10-04T07:51:26.690Z,73.32
2017-10-04T07:52:07.277Z,74.66
2017-10-04T07:52:47.871Z,76.86
2017-10-04T07:53:28.456Z,76.67
2017-10-04T07:54:09.043Z,76.39
2017-10-04T07:54:50.463Z,76.42
2017-10-04T07:55:31.040Z,75.95
2017-10-04T07:56:11.630Z,75.37
2017-10-04T07:56:52.216Z,76
2017-10-04T07:57:32.798Z,75.71
2017-10-04T07:58:13.390Z,76.19
2017-10-04T07:58:53.993Z,76.19
2017-10-04T08:00:51.701Z,76.25
2017-10-04T08:01:32.279Z,76.82
2017-10-04T08:02:12.854Z,77.78
2017-10-04T08:02:53.443Z,78.93
2017-10-04T08:03:34.023Z,78.27
2017-10-04T08:04:14.607Z,77.4
2017-10-04T08:04:55.189Z,76.54
2017-10-04T08:05:35.761Z,76.73
2017-10-04T08:06:16.336Z,76.6
2017-10-04T08:06:56.913Z,77.46
2017-10-04T08:07:37.486Z,78.03
2017-10-04T08:08:18.067Z,79.37
2017-10-04T08:08:58.639Z,80.24
2017-10-04T08:09:39.226Z,81
2017-10-04T08:10:19.801Z,80.43
2017-10-04T08:11:00.383Z,79.51
2017-10-04T08:11:40.960Z,78.74
2017-10-04T08:12:21.532Z,77.97
2017-10-04T08:13:02.108Z,78.64
2017-10-04T08:13:42.683Z,77.78
2017-10-04T08:14:23.266Z,78.74
2017-10-04T08:16:10.810Z,75.71
2017-10-04T08:16:51.382Z,75.71
2017-10-04T08:17:31.966Z,75.62
2017-10-04T08:18:12.552Z,75.71
2017-10-04T08:18:53.139Z,75.81
2017-10-04T08:19:33.712Z,75.9
2017-10-04T08:20:14.297Z,76.23
2017-10-04T08:20:54.878Z,76.94
2017-10-04T08:21:35.464Z,74.64
2017-10-04T08:22:16.038Z,74.83
2017-10-04T08:22:56.616Z,73.87
2017-10-04T08:23:37.195Z,73.97
2017-10-04T08:24:17.778Z,74.06
2017-10-04T08:24:58.359Z,73.1
2017-10-04T08:25:38.940Z,74.39
2017-10-04T08:26:19.525Z,74.23
2017-10-04T08:27:00.105Z,73.21
2017-10-04T08:27:40.695Z,71.39
2017-10-04T08:28:21.274Z,68.98
2017-10-04T08:29:01.845Z,68.25
2017-10-04T08:31:19.803Z,68.79
2017-10-04T08:32:00.386Z,69.53
2017-10-04T08:32:40.974Z,70.58
2017-10-04T08:33:21.556Z,69.18
2017-10-04T08:34:02.141Z,68.95
2017-10-04T08:34:42.726Z,69.49
2017-10-04T08:35:23.307Z,69.59
2017-10-04T08:36:03.904Z,70.45
2017-10-04T08:36:44.465Z,71.41
2017-10-04T08:37:25.041Z,70.42
2017-10-04T08:38:05.611Z,71.31
2017-10-04T08:38:46.195Z,70.45
2017-10-04T08:39:26.772Z,70.74
2017-10-04T08:40:07.362Z,70.93
2017-10-04T08:40:47.941Z,70.36
2017-10-04T08:41:28.520Z,70.17
2017-10-04T08:42:09.099Z,70.7
2017-10-04T08:43:56.625Z,71.37
2017-10-04T08:44:37.222Z,71.76
2017-10-04T08:45:17.795Z,70.84
2017-10-04T08:45:58.387Z,69.81
2017-10-04T08:46:38.965Z,68.21
2017-10-04T08:47:19.548Z,68.54
2017-10-04T08:48:00.130Z,65.97
2017-10-04T08:48:40.708Z,64.37
2017-10-04T08:49:21.292Z,63.18
2017-10-04T08:50:01.879Z,63.18
2017-10-04T08:50:42.453Z,63.7
2017-10-04T08:51:23.035Z,62.74
2017-10-04T08:52:03.611Z,62.54
2017-10-04T08:52:44.780Z,62.74
2017-10-04T08:53:25.364Z,63.73
2017-10-04T08:54:05.951Z,62.9
2017-10-04T08:54:46.531Z,61.77
2017-10-04T08:55:27.121Z,60.13
2017-10-04T08:56:07.705Z,60.93
2017-10-04T08:56:48.284Z,60.06
2017-10-04T08:57:28.856Z,60.28
2017-10-04T08:58:09.429Z,59.55
2017-10-04T08:58:50.002Z,57.16
2017-10-04T08:59:30.582Z,55.3
2017-10-04T09:00:11.175Z,56.62
2017-10-04T09:00:51.755Z,57.29
2017-10-04T09:01:32.340Z,57.29
2017-10-04T09:02:12.929Z,56.91